createdAt,value
2023-03-29T00:01:08.391Z,9.75
2023-03-29T00:03:37.819Z,10.25
2023-03-29T00:06:07.638Z,10.00
2023-03-29T00:08:36.088Z,11.00
2023-03-29T00:11:05.046Z,10.25
2023-03-29T00:13:34.192Z,10.00
2023-03-29T00:16:02.579Z,9.75
2023-03-29T00:18:30.960Z,10.50
2023-03-29T00:21:01.398Z,10.50
2023-03-29T00:23:29.994Z,9.75
2023-03-29T00:26:01.647Z,8.00
2023-03-29T00:28:30.359Z,9.00
2023-03-29T00:31:11.037Z,9.00
2023-03-29T00:33:39.969Z,8.25
2023-03-29T00:36:11.133Z,10.50
2023-03-29T00:38:41.865Z,7.25
2023-03-29T00:41:10.951Z,9.00
2023-03-29T00:43:58.194Z,9.25
2023-03-29T00:46:28.121Z,9.75
2023-03-29T00:49:08.440Z,8.50
2023-03-29T00:51:40.637Z,8.00
2023-03-29T00:54:15.531Z,10.00
2023-03-29T00:56:51.025Z,8.00
2023-03-29T00:59:29.494Z,8.50
2023-03-29T01:02:08.546Z,9.00
2023-03-29T01:04:46.478Z,8.00
2023-03-29T01:07:39.097Z,9.75
2023-03-29T01:10:10.937Z,7.00
2023-03-29T01:12:47.691Z,8.00
2023-03-29T01:15:21.101Z,9.75
2023-03-29T01:17:51.680Z,11.00
2023-03-29T01:20:44.303Z,8.00
2023-03-29T01:23:27.955Z,7.00
2023-03-29T01:26:10.757Z,8.00
2023-03-29T01:28:47.938Z,7.00
2023-03-29T01:31:26.202Z,6.00
2023-03-29T01:34:02.386Z,9.00
2023-03-29T01:36:41.895Z,9.00
2023-03-29T01:39:10.386Z,9.00
2023-03-29T01:42:15.369Z,9.75
2023-03-29T01:45:14.810Z,9.00
2023-03-29T01:48:00.509Z,9.75
2023-03-29T01:50:28.862Z,9.00
2023-03-29T01:53:23.657Z,7.00
2023-03-29T01:55:58.347Z,9.50
2023-03-29T01:58:34.682Z,10.25
2023-03-29T02:01:11.287Z,8.50
2023-03-29T02:03:45.711Z,12.50
2023-03-29T02:06:19.125Z,10.25
2023-03-29T02:08:48.775Z,10.00
2023-03-29T02:11:17.418Z,10.50
2023-03-29T02:13:45.820Z,10.75
2023-03-29T02:16:16.364Z,10.75
2023-03-29T02:18:48.800Z,10.00
2023-03-29T02:21:31.067Z,10.75
2023-03-29T02:24:03.031Z,10.75
2023-03-29T02:26:31.721Z,13.00
2023-03-29T02:29:00.159Z,12.00
2023-03-29T02:31:28.496Z,12.25
2023-03-29T02:34:03.193Z,13.75
2023-03-29T02:36:39.200Z,11.50
2023-03-29T02:39:10.730Z,12.25
2023-03-29T02:41:40.088Z,11.50
2023-03-29T02:44:12.217Z,10.25
2023-03-29T02:46:43.673Z,11.25
2023-03-29T02:49:12.663Z,9.25
2023-03-29T02:51:41.149Z,11.00
2023-03-29T02:54:19.450Z,12.00
2023-03-29T02:57:02.048Z,10.25
2023-03-29T02:59:31.383Z,8.00
2023-03-29T03:02:00.544Z,9.00
2023-03-29T03:04:31.064Z,9.00
2023-03-29T03:06:59.407Z,9.00
2023-03-29T03:09:28.329Z,8.50
2023-03-29T03:11:56.690Z,12.00
2023-03-29T03:14:25.018Z,9.75
2023-03-29T03:16:53.849Z,9.00
2023-03-29T03:19:22.774Z,10.00
2023-03-29T03:21:51.952Z,10.50
2023-03-29T03:24:20.460Z,10.00
2023-03-29T03:26:49.136Z,10.75
2023-03-29T03:29:18.127Z,11.75
2023-03-29T03:31:46.519Z,9.00
2023-03-29T03:34:14.855Z,8.25
2023-03-29T03:36:43.213Z,9.50
2023-03-29T03:39:12.766Z,10.00
2023-03-29T03:41:41.470Z,9.50
2023-03-29T03:44:09.880Z,10.00
2023-03-29T03:46:38.243Z,9.75
2023-03-29T03:49:06.686Z,12.00
2023-03-29T03:51:35.042Z,9.50
2023-03-29T03:54:03.417Z,8.75
2023-03-29T03:56:32.035Z,9.75
2023-03-29T03:59:00.378Z,7.50
2023-03-29T04:01:29.100Z,8.75
2023-03-29T04:03:57.542Z,11.00
2023-03-29T04:06:26.367Z,9.00
2023-03-29T04:08:54.690Z,11.00
2023-03-29T04:11:23.048Z,12.75
2023-03-29T04:13:51.367Z,11.00
2023-03-29T04:16:19.710Z,11.00
2023-03-29T04:18:48.594Z,11.25
2023-03-29T04:21:20.022Z,12.00
2023-03-29T04:23:49.710Z,14.00
2023-03-29T04:26:19.007Z,12.75
2023-03-29T04:28:47.532Z,11.00
2023-03-29T04:31:16.624Z,11.50
2023-03-29T04:33:47.743Z,11.75
2023-03-29T04:36:16.874Z,11.25
2023-03-29T04:38:47.803Z,12.75
2023-03-29T04:41:16.857Z,11.50
2023-03-29T04:43:47.362Z,11.00
2023-03-29T04:46:16.646Z,11.00
2023-03-29T04:48:45.044Z,10.75
2023-03-29T04:51:13.686Z,10.75
2023-03-29T04:53:42.684Z,10.00
2023-03-29T04:56:11.175Z,10.50
2023-03-29T04:58:39.521Z,11.50
2023-03-29T05:01:07.909Z,9.50
2023-03-29T05:03:37.048Z,9.75
2023-03-29T05:06:11.108Z,9.00
2023-03-29T05:08:41.253Z,10.25
2023-03-29T05:11:11.907Z,12.50
2023-03-29T05:13:41.040Z,8.50
2023-03-29T05:16:09.886Z,9.25
2023-03-29T05:18:38.227Z,10.00
2023-03-29T05:21:07.369Z,9.25
2023-03-29T05:23:35.723Z,9.75
2023-03-29T05:26:05.516Z,9.75
2023-03-29T05:28:34.806Z,9.25
2023-03-29T05:31:05.808Z,7.50
2023-03-29T05:33:35.556Z,9.75
2023-03-29T05:36:10.384Z,9.00
2023-03-29T05:38:39.115Z,8.75
2023-03-29T05:41:07.975Z,9.00
2023-03-29T05:43:36.417Z,8.00
2023-03-29T05:46:05.141Z,8.25
2023-03-29T05:48:33.601Z,9.50
2023-03-29T05:51:02.163Z,10.25
2023-03-29T05:53:30.916Z,10.75
2023-03-29T05:55:59.653Z,9.25
2023-03-29T05:58:29.363Z,9.50
2023-03-29T06:00:58.400Z,8.75
2023-03-29T06:03:28.412Z,10.50
2023-03-29T06:06:04.854Z,10.00
2023-03-29T06:08:36.038Z,10.25
2023-03-29T06:11:07.443Z,9.50
2023-03-29T06:13:37.123Z,10.00
2023-03-29T06:16:09.503Z,9.50
2023-03-29T06:18:42.176Z,9.75
2023-03-29T06:21:10.705Z,9.50
2023-03-29T06:23:39.038Z,9.75
2023-03-29T06:26:07.820Z,10.00
2023-03-29T06:28:36.620Z,9.00
2023-03-29T06:31:06.464Z,10.75
2023-03-29T06:33:35.218Z,7.75
2023-03-29T06:36:04.343Z,9.00
2023-03-29T06:38:33.325Z,9.75
2023-03-29T06:41:06.984Z,10.75
2023-03-29T06:43:35.772Z,8.75
2023-03-29T06:46:05.135Z,9.25
2023-03-29T06:48:33.544Z,8.00
2023-03-29T06:51:02.298Z,8.75
2023-03-29T06:53:31.716Z,7.25
2023-03-29T06:56:00.647Z,8.50
2023-03-29T06:58:29.743Z,9.25
2023-03-29T07:01:03.437Z,8.25
2023-03-29T07:03:32.474Z,8.00
2023-03-29T07:06:10.528Z,7.25
2023-03-29T07:08:48.318Z,10.50
2023-03-29T07:11:17.469Z,8.75
2023-03-29T07:13:47.185Z,9.25
2023-03-29T07:16:15.669Z,8.50
2023-03-29T07:18:45.203Z,7.50
2023-03-29T07:21:14.598Z,6.50
2023-03-29T07:23:43.051Z,7.75
2023-03-29T07:26:12.129Z,9.25
2023-03-29T07:28:40.797Z,6.50
2023-03-29T07:31:12.503Z,7.25
2023-03-29T07:33:41.636Z,6.50
2023-03-29T07:36:10.711Z,7.75
2023-03-29T07:38:39.521Z,6.50
2023-03-29T07:41:08.949Z,8.50
2023-03-29T07:43:37.338Z,7.75
2023-03-29T07:46:07.303Z,8.00
2023-03-29T07:48:37.816Z,8.75
2023-03-29T07:51:07.272Z,6.50
2023-03-29T07:53:35.800Z,7.75
2023-03-29T07:56:04.293Z,7.00
2023-03-29T07:58:32.674Z,9.00
2023-03-29T08:01:01.534Z,6.75
2023-03-29T08:03:30.280Z,7.25
2023-03-29T08:05:58.895Z,8.00
2023-03-29T08:08:27.202Z,7.00
2023-03-29T08:10:55.811Z,7.25
2023-03-29T08:13:24.274Z,5.50
2023-03-29T08:15:52.678Z,7.00
2023-03-29T08:18:21.007Z,9.25
2023-03-29T08:20:49.504Z,7.25
2023-03-29T08:23:17.906Z,9.50
2023-03-29T08:25:48.149Z,10.50
2023-03-29T08:28:16.575Z,7.75
2023-03-29T08:30:44.999Z,10.50
2023-03-29T08:33:13.392Z,9.00
2023-03-29T08:35:42.254Z,9.00
2023-03-29T08:38:11.297Z,9.50
2023-03-29T08:40:42.899Z,9.75
2023-03-29T08:43:23.233Z,7.25
2023-03-29T08:46:02.617Z,8.75
2023-03-29T08:48:36.028Z,7.75
2023-03-29T08:51:22.481Z,9.75
2023-03-29T08:54:05.870Z,9.75
2023-03-29T08:56:38.537Z,8.75
2023-03-29T08:59:14.579Z,8.75
2023-03-29T09:01:44.875Z,7.75
2023-03-29T09:04:31.416Z,7.75
2023-03-29T09:07:00.296Z,8.25
2023-03-29T09:09:34.876Z,7.75
2023-03-29T09:12:06.333Z,9.00
2023-03-29T09:14:53.694Z,7.25
2023-03-29T09:17:49.835Z,6.75
2023-03-29T09:20:38.976Z,7.75
2023-03-29T09:23:37.828Z,8.00
2023-03-29T09:26:19.186Z,6.00
2023-03-29T09:29:01.694Z,6.75
2023-03-29T09:31:38.168Z,7.00
2023-03-29T09:34:18.646Z,7.00
2023-03-29T09:36:58.459Z,7.00
2023-03-29T09:39:30.025Z,6.25
2023-03-29T09:42:05.518Z,5.75
2023-03-29T09:44:44.906Z,6.25
2023-03-29T09:47:28.429Z,7.00
2023-03-29T09:50:19.811Z,7.25
2023-03-29T09:52:58.726Z,6.00
2023-03-29T09:55:30.614Z,6.00
2023-03-29T09:58:08.628Z,5.75
2023-03-29T10:00:37.633Z,7.00
2023-03-29T10:03:06.943Z,8.00
2023-03-29T10:05:39.196Z,7.00
2023-03-29T10:08:28.757Z,6.25
2023-03-29T10:11:03.207Z,6.50
2023-03-29T10:13:34.764Z,8.75
2023-03-29T10:16:18.051Z,5.50
2023-03-29T10:18:46.459Z,7.50
2023-03-29T10:21:22.990Z,9.25
2023-03-29T10:24:00.284Z,6.00
2023-03-29T10:26:35.492Z,7.00
2023-03-29T10:29:09.241Z,6.75
2023-03-29T10:31:42.529Z,6.00
2023-03-29T10:34:16.388Z,7.00
2023-03-29T10:36:54.854Z,8.00
2023-03-29T10:39:33.833Z,8.25
2023-03-29T10:42:05.473Z,9.00
2023-03-29T10:44:37.479Z,10.00
2023-03-29T10:47:21.212Z,8.75
2023-03-29T10:50:00.448Z,9.50
2023-03-29T10:52:31.532Z,9.50
2023-03-29T10:55:00.977Z,8.75
2023-03-29T10:57:40.906Z,11.00
2023-03-29T11:00:20.718Z,8.50
2023-03-29T11:03:08.748Z,8.00
2023-03-29T11:06:12.405Z,9.25
2023-03-29T11:08:59.738Z,8.00
2023-03-29T11:12:14.484Z,8.75
2023-03-29T11:15:06.662Z,9.50
2023-03-29T11:17:38.326Z,8.75
2023-03-29T11:20:20.622Z,8.00
2023-03-29T11:23:07.828Z,8.50
2023-03-29T11:25:45.477Z,8.25
2023-03-29T11:28:41.906Z,8.50
2023-03-29T11:31:26.056Z,8.25
2023-03-29T11:34:45.860Z,7.75
2023-03-29T11:37:38.858Z,7.50
2023-03-29T11:40:32.955Z,7.50
2023-03-29T11:43:05.494Z,7.25
2023-03-29T11:45:40.971Z,9.50
2023-03-29T11:48:22.206Z,7.50
2023-03-29T11:51:27.190Z,8.50
2023-03-29T11:54:08.718Z,9.00
2023-03-29T11:56:51.793Z,7.75
2023-03-29T11:59:31.709Z,7.50
2023-03-29T12:02:05.762Z,9.00
2023-03-29T12:04:48.138Z,8.00
2023-03-29T12:07:29.099Z,9.00
2023-03-29T12:10:27.710Z,8.25
2023-03-29T12:13:07.462Z,7.50
2023-03-29T12:15:52.024Z,8.25
2023-03-29T12:18:24.605Z,9.00
2023-03-29T12:21:03.075Z,8.00
2023-03-29T12:23:34.231Z,7.75
2023-03-29T12:26:13.598Z,7.50
2023-03-29T12:29:06.463Z,7.25
2023-03-29T12:31:46.539Z,7.00
2023-03-29T12:34:31.949Z,6.50
2023-03-29T12:37:20.057Z,8.50
2023-03-29T12:39:50.147Z,8.50
2023-03-29T12:42:24.288Z,8.00
2023-03-29T12:45:03.313Z,7.75
2023-03-29T12:47:44.089Z,6.00
2023-03-29T12:50:34.942Z,8.25
2023-03-29T12:53:15.237Z,5.50
2023-03-29T12:55:43.648Z,7.00
2023-03-29T12:58:24.899Z,8.25
2023-03-29T13:01:11.115Z,5.25
2023-03-29T13:03:58.647Z,7.25
2023-03-29T13:06:54.164Z,10.00
2023-03-29T13:09:49.190Z,6.00
2023-03-29T13:12:17.668Z,6.25
2023-03-29T13:14:53.261Z,8.00
2023-03-29T13:17:53.988Z,6.75
2023-03-29T13:20:34.164Z,9.00
2023-03-29T13:23:38.969Z,7.75
2023-03-29T13:26:34.471Z,6.25
2023-03-29T13:29:17.580Z,8.00
2023-03-29T13:31:54.635Z,9.00
2023-03-29T13:34:46.016Z,6.50
2023-03-29T13:37:57.882Z,8.25
2023-03-29T13:40:44.692Z,6.50
2023-03-29T13:43:24.671Z,9.00
2023-03-29T13:46:07.782Z,9.50
2023-03-29T13:48:39.325Z,10.25
2023-03-29T13:51:19.908Z,8.00
2023-03-29T13:54:01.702Z,7.75
2023-03-29T13:56:38.244Z,8.25
2023-03-29T13:59:26.436Z,7.75
2023-03-29T14:01:58.897Z,8.00
2023-03-29T14:04:32.300Z,8.00
2023-03-29T14:07:02.802Z,8.50
2023-03-29T14:09:34.131Z,8.50
2023-03-29T14:12:03.280Z,9.00
2023-03-29T14:14:34.000Z,9.25
2023-03-29T14:17:03.161Z,9.75
2023-03-29T14:19:39.495Z,8.50
2023-03-29T14:22:19.898Z,9.00
2023-03-29T14:24:54.066Z,9.25
2023-03-29T14:27:23.805Z,9.25
2023-03-29T14:29:54.202Z,9.50
2023-03-29T14:32:31.035Z,8.75
2023-03-29T14:35:01.454Z,9.25
2023-03-29T14:37:31.130Z,6.50
2023-03-29T14:40:00.712Z,9.75
2023-03-29T14:42:30.943Z,11.00
2023-03-29T14:45:05.248Z,8.50
2023-03-29T14:47:35.277Z,8.50
2023-03-29T14:50:04.925Z,9.50
2023-03-29T14:52:34.949Z,10.50
2023-03-29T14:55:05.053Z,10.00
2023-03-29T14:57:38.944Z,8.75
2023-03-29T15:00:29.140Z,9.75
2023-03-29T15:03:03.094Z,9.00
2023-03-29T15:05:42.454Z,11.00
2023-03-29T15:08:33.337Z,9.50
2023-03-29T15:11:04.227Z,7.50
2023-03-29T15:13:32.900Z,11.50
2023-03-29T15:16:07.561Z,9.75
2023-03-29T15:18:42.894Z,8.00
2023-03-29T15:21:14.949Z,10.25
2023-03-29T15:24:04.627Z,10.25
2023-03-29T15:26:39.204Z,10.50
2023-03-29T15:29:24.568Z,10.50
2023-03-29T15:31:58.533Z,10.00
2023-03-29T15:34:33.072Z,8.25
2023-03-29T15:37:03.594Z,9.00
2023-03-29T15:39:33.729Z,9.75
2023-03-29T15:42:02.897Z,11.00
2023-03-29T15:44:34.877Z,11.50
2023-03-29T15:47:03.406Z,10.00
2023-03-29T15:49:32.080Z,10.75
2023-03-29T15:52:00.514Z,10.25
2023-03-29T15:54:30.094Z,9.50
2023-03-29T15:57:04.456Z,9.50
2023-03-29T15:59:33.548Z,11.50
2023-03-29T16:02:02.306Z,8.75
2023-03-29T16:04:30.782Z,10.25
2023-03-29T16:06:59.845Z,11.25
2023-03-29T16:09:28.471Z,10.00
2023-03-29T16:11:57.085Z,10.50
2023-03-29T16:14:33.159Z,10.00
2023-03-29T16:17:04.014Z,10.25
2023-03-29T16:19:33.536Z,12.50
2023-03-29T16:22:06.019Z,10.25
2023-03-29T16:24:36.114Z,11.25
2023-03-29T16:27:05.421Z,12.25
2023-03-29T16:29:33.977Z,9.75
2023-03-29T16:32:04.610Z,10.75
2023-03-29T16:34:34.598Z,10.50
2023-03-29T16:37:03.050Z,10.50
2023-03-29T16:39:31.524Z,8.75
2023-03-29T16:42:00.133Z,11.25
2023-03-29T16:44:29.095Z,11.25
2023-03-29T16:47:00.756Z,10.75
2023-03-29T16:49:29.456Z,10.25
2023-03-29T16:51:58.133Z,12.00
2023-03-29T16:54:27.527Z,11.50
2023-03-29T16:56:56.097Z,11.25
2023-03-29T16:59:25.118Z,11.25
2023-03-29T17:01:53.677Z,12.00
2023-03-29T17:04:22.200Z,13.25
2023-03-29T17:06:50.683Z,9.75
2023-03-29T17:09:19.193Z,12.00
2023-03-29T17:11:47.677Z,11.75
2023-03-29T17:14:17.970Z,11.50
2023-03-29T17:16:47.294Z,12.50
2023-03-29T17:19:15.780Z,10.75
2023-03-29T17:21:44.617Z,10.25
2023-03-29T17:24:13.090Z,10.75
2023-03-29T17:26:43.832Z,13.75
2023-03-29T17:29:13.636Z,12.00
2023-03-29T17:31:48.564Z,11.50
2023-03-29T17:34:18.716Z,13.50
2023-03-29T17:36:47.758Z,12.50
2023-03-29T17:39:16.562Z,11.50
2023-03-29T17:41:45.045Z,14.00
2023-03-29T17:44:13.440Z,13.75
2023-03-29T17:46:42.093Z,12.00
2023-03-29T17:49:10.486Z,12.00
2023-03-29T17:51:39.542Z,12.75
2023-03-29T17:54:08.242Z,10.00
2023-03-29T17:56:36.678Z,12.50
2023-03-29T17:59:05.548Z,14.50
2023-03-29T18:01:34.900Z,12.75
2023-03-29T18:04:04.303Z,12.25
2023-03-29T18:06:36.016Z,13.25
2023-03-29T18:09:04.726Z,11.75
2023-03-29T18:11:33.205Z,11.75
2023-03-29T18:14:02.156Z,10.75
2023-03-29T18:16:30.886Z,13.25
2023-03-29T18:18:59.467Z,12.50
2023-03-29T18:21:29.084Z,14.00
2023-03-29T18:23:57.772Z,13.75
2023-03-29T18:26:26.823Z,12.25
2023-03-29T18:28:55.429Z,14.50
2023-03-29T18:31:23.920Z,13.00
2023-03-29T18:33:52.375Z,13.25
2023-03-29T18:36:21.253Z,14.75
2023-03-29T18:38:49.962Z,13.50
2023-03-29T18:41:18.425Z,14.00
2023-03-29T18:43:48.176Z,13.50
2023-03-29T18:46:17.259Z,15.00
2023-03-29T18:48:45.707Z,13.25
2023-03-29T18:51:14.339Z,14.25
2023-03-29T18:53:44.606Z,13.00
2023-03-29T18:56:13.074Z,14.00
2023-03-29T18:58:41.845Z,16.25
2023-03-29T19:01:11.711Z,14.25
2023-03-29T19:03:40.342Z,14.00
2023-03-29T19:06:09.931Z,14.50
2023-03-29T19:08:40.596Z,13.25
2023-03-29T19:11:11.402Z,16.25
2023-03-29T19:13:40.020Z,16.00
2023-03-29T19:16:08.929Z,15.75
2023-03-29T19:18:37.736Z,14.00
2023-03-29T19:21:06.222Z,16.50
2023-03-29T19:23:34.878Z,12.75
2023-03-29T19:26:06.508Z,12.25
2023-03-29T19:28:35.723Z,15.25
2023-03-29T19:31:05.602Z,14.25
2023-03-29T19:33:34.266Z,15.25
2023-03-29T19:36:03.244Z,16.75
2023-03-29T19:38:31.837Z,15.25
2023-03-29T19:41:00.539Z,12.75
2023-03-29T19:43:29.201Z,13.50
2023-03-29T19:45:58.379Z,12.00
2023-03-29T19:48:27.076Z,14.50
2023-03-29T19:50:55.488Z,14.75
2023-03-29T19:53:24.010Z,14.75
2023-03-29T19:55:53.321Z,13.00
2023-03-29T19:58:22.675Z,15.00
2023-03-29T20:00:54.114Z,14.00
2023-03-29T20:03:23.525Z,13.50
2023-03-29T20:05:52.341Z,14.00
2023-03-29T20:08:20.742Z,13.75
2023-03-29T20:10:49.104Z,14.00
2023-03-29T20:13:24.475Z,15.75
2023-03-29T20:16:00.253Z,16.00
2023-03-29T20:18:28.643Z,15.00
2023-03-29T20:20:57.062Z,15.25
2023-03-29T20:23:25.465Z,12.50
2023-03-29T20:25:54.457Z,15.25
2023-03-29T20:28:22.835Z,12.50
2023-03-29T20:30:52.337Z,13.75
2023-03-29T20:33:21.940Z,13.75
2023-03-29T20:35:50.349Z,16.00
2023-03-29T20:38:18.842Z,14.75
2023-03-29T20:40:47.202Z,12.50
2023-03-29T20:43:19.218Z,14.75
2023-03-29T20:45:54.007Z,12.50
2023-03-29T20:48:23.972Z,14.50
2023-03-29T20:50:52.858Z,14.50
2023-03-29T20:53:21.489Z,13.75
2023-03-29T20:55:49.953Z,16.00
2023-03-29T20:58:18.695Z,16.25
2023-03-29T21:00:49.305Z,12.25
2023-03-29T21:03:17.899Z,13.25
2023-03-29T21:05:46.913Z,16.50
2023-03-29T21:08:16.463Z,14.25
2023-03-29T21:10:46.246Z,15.25
2023-03-29T21:13:14.600Z,14.00
2023-03-29T21:15:43.192Z,16.50
2023-03-29T21:18:11.884Z,14.00
2023-03-29T21:20:40.348Z,12.75
2023-03-29T21:23:08.954Z,14.00
2023-03-29T21:25:38.394Z,14.25
2023-03-29T21:28:07.027Z,14.75
2023-03-29T21:30:35.414Z,15.75
2023-03-29T21:33:03.939Z,15.50
2023-03-29T21:35:34.258Z,16.50
2023-03-29T21:38:03.021Z,17.00
2023-03-29T21:40:31.526Z,15.50
2023-03-29T21:42:59.930Z,13.50
2023-03-29T21:45:28.603Z,14.25
2023-03-29T21:47:59.545Z,15.75
2023-03-29T21:50:28.015Z,14.25
2023-03-29T21:52:57.225Z,15.75
2023-03-29T21:55:25.694Z,14.25
2023-03-29T21:57:54.190Z,14.75
2023-03-29T22:00:23.342Z,16.50
2023-03-29T22:02:52.607Z,15.00
2023-03-29T22:05:21.022Z,16.25
2023-03-29T22:07:53.681Z,15.75
2023-03-29T22:10:24.853Z,16.00
2023-03-29T22:12:53.619Z,15.25
2023-03-29T22:15:22.043Z,16.00
2023-03-29T22:17:51.365Z,16.50
2023-03-29T22:20:20.074Z,16.25
2023-03-29T22:22:53.264Z,14.75
2023-03-29T22:25:22.308Z,19.00
2023-03-29T22:27:51.320Z,16.50
2023-03-29T22:30:20.411Z,16.00
2023-03-29T22:32:48.825Z,18.75
2023-03-29T22:35:17.451Z,17.75
2023-03-29T22:37:46.013Z,16.00
2023-03-29T22:40:15.148Z,17.25
2023-03-29T22:42:43.630Z,16.00
2023-03-29T22:45:12.417Z,16.75
2023-03-29T22:47:40.929Z,15.00
2023-03-29T22:50:09.840Z,15.00
2023-03-29T22:52:38.222Z,15.25
2023-03-29T22:55:07.410Z,17.75
2023-03-29T22:57:35.799Z,16.50
2023-03-29T23:00:09.683Z,17.50
2023-03-29T23:02:38.678Z,16.25
2023-03-29T23:05:07.839Z,18.25
2023-03-29T23:07:37.501Z,16.75
2023-03-29T23:10:08.146Z,15.25
2023-03-29T23:12:39.408Z,16.50
2023-03-29T23:15:08.907Z,16.75
2023-03-29T23:17:38.045Z,16.75
2023-03-29T23:20:07.441Z,19.25
2023-03-29T23:22:37.232Z,19.00
2023-03-29T23:25:05.800Z,19.50
2023-03-29T23:27:34.219Z,18.50
2023-03-29T23:30:02.631Z,19.75
2023-03-29T23:32:31.275Z,16.50
2023-03-29T23:35:00.977Z,18.25
2023-03-29T23:37:29.372Z,17.50
2023-03-29T23:39:57.852Z,19.50
2023-03-29T23:42:27.006Z,19.00
2023-03-29T23:44:55.447Z,18.25
2023-03-29T23:47:23.870Z,18.75
2023-03-29T23:49:54.153Z,19.25
2023-03-29T23:52:24.035Z,20.25
2023-03-29T23:54:52.463Z,19.50
2023-03-29T23:57:21.580Z,19.25
2023-03-29T23:59:53.573Z,20.75
